Time;durP1;ratioP1;P1;durP2;ratioP2;P2;SDS_P1;SDS_P2;PMS_P1;PMS_P2;Temp;Humidity;BMP_temperature;BMP_pressure;BME280_temperature;BME280_humidity;BME280_pressure;Samples;Min_cycle;Max_cycle;Signal;HPM_P1;HPM_P2
2022/06/26 00:01:24;;;;;;;17.75;16.25;;;17.20;99.90;;;;;;4663592;30;20047;-89
2022/06/26 00:03:50;;;;;;;16.67;15.18;;;17.10;99.90;;;;;;4669934;30;20046;-87
2022/06/26 00:06:16;;;;;;;16.65;15.02;;;17.10;99.90;;;;;;4658687;30;20082;-87
2022/06/26 00:08:41;;;;;;;19.42;17.60;;;17.00;99.90;;;;;;4647603;30;20507;-86
2022/06/26 00:11:07;;;;;;;17.17;15.55;;;17.10;99.90;;;;;;4669820;30;20473;-86
2022/06/26 00:13:33;;;;;;;18.20;16.30;;;16.90;99.90;;;;;;4657357;30;20138;-86
2022/06/26 00:15:59;;;;;;;17.05;15.60;;;16.90;99.90;;;;;;4669988;30;20094;-86
2022/06/26 00:18:24;;;;;;;16.33;14.95;;;16.90;99.90;;;;;;4661712;30;20051;-87
2022/06/26 00:20:50;;;;;;;18.13;16.73;;;16.80;99.90;;;;;;4655884;30;20138;-87
2022/06/26 00:23:15;;;;;;;23.33;21.15;;;16.90;99.90;;;;;;4668294;30;20415;-87
2022/06/26 00:25:41;;;;;;;24.83;22.38;;;16.90;99.90;;;;;;4673461;30;20050;-86
2022/06/26 00:28:07;;;;;;;26.58;24.08;;;17.00;99.90;;;;;;4660625;30;20049;-86
2022/06/26 00:30:32;;;;;;;37.63;27.92;;;17.00;99.90;;;;;;4639196;30;20086;-87
2022/06/26 00:32:58;;;;;;;36.63;30.38;;;17.00;99.90;;;;;;4639350;30;20038;-86
2022/06/26 00:35:24;;;;;;;33.20;29.52;;;17.10;99.90;;;;;;4672854;30;20096;-85
2022/06/26 00:37:49;;;;;;;33.63;29.95;;;17.10;99.90;;;;;;4665835;30;20124;-86
2022/06/26 00:40:15;;;;;;;33.00;29.60;;;17.10;99.90;;;;;;4651573;30;20050;-85
2022/06/26 00:42:41;;;;;;;35.33;30.33;;;17.20;99.90;;;;;;4654683;30;20554;-85
2022/06/26 00:45:08;;;;;;;63.10;35.13;;;17.20;99.90;;;;;;4658164;30;20426;-86
2022/06/26 00:47:33;;;;;;;34.60;30.88;;;17.20;99.90;;;;;;4669744;30;20065;-85
2022/06/26 00:50:00;;;;;;;63.80;34.28;;;17.30;99.90;;;;;;4658573;30;20484;-86
2022/06/26 00:52:27;;;;;;;36.50;32.53;;;17.30;99.90;;;;;;4641044;30;20035;-86
2022/06/26 00:54:54;;;;;;;37.00;29.30;;;17.40;99.90;;;;;;4653369;30;20047;-86
2022/06/26 00:57:20;;;;;;;38.38;31.38;;;17.40;99.90;;;;;;4658508;30;20054;-86
2022/06/26 00:59:47;;;;;;;42.70;32.38;;;17.40;99.90;;;;;;4679655;30;20125;-86
2022/06/26 01:02:12;;;;;;;30.95;27.58;;;17.30;99.90;;;;;;4676386;30;20066;-86
2022/06/26 01:04:38;;;;;;;32.30;28.83;;;17.50;99.90;;;;;;4656278;30;20043;-87
2022/06/26 01:07:05;;;;;;;30.60;26.35;;;17.40;99.90;;;;;;4662318;30;20051;-87
2022/06/26 01:09:33;;;;;;;41.97;28.48;;;17.40;99.90;;;;;;4669495;30;20464;-88
2022/06/26 01:11:59;;;;;;;30.85;25.55;;;17.50;99.90;;;;;;4669257;30;20051;-87
2022/06/26 01:14:25;;;;;;;32.03;26.63;;;17.40;99.90;;;;;;4655454;30;20109;-86
2022/06/26 01:16:51;;;;;;;32.25;26.73;;;17.50;99.90;;;;;;4676376;30;20050;-87
2022/06/26 01:19:18;;;;;;;30.25;25.33;;;17.50;99.90;;;;;;4633376;30;20057;-87
2022/06/26 01:21:45;;;;;;;32.85;25.63;;;17.40;99.90;;;;;;4641619;30;20499;-89
2022/06/26 01:24:11;;;;;;;29.42;25.17;;;17.50;99.90;;;;;;4656089;30;20050;-88
2022/06/26 01:26:37;;;;;;;28.67;25.70;;;17.50;99.90;;;;;;4677331;30;20135;-87
2022/06/26 01:29:04;;;;;;;26.02;22.48;;;17.60;99.90;;;;;;4648486;30;20042;-87
2022/06/26 01:31:30;;;;;;;29.35;25.42;;;17.50;99.90;;;;;;4658647;30;20495;-86
2022/06/26 01:33:56;;;;;;;27.15;24.00;;;17.50;99.90;;;;;;4637399;30;20403;-85
2022/06/26 01:36:21;;;;;;;27.38;23.08;;;17.50;99.90;;;;;;4664870;30;20054;-85
2022/06/26 01:38:48;;;;;;;26.00;23.20;;;17.50;99.90;;;;;;4668667;30;20530;-85
2022/06/26 01:41:13;;;;;;;40.45;23.92;;;17.50;99.90;;;;;;4661974;30;20054;-85
2022/06/26 01:43:39;;;;;;;33.20;24.42;;;17.50;99.90;;;;;;4654215;30;20047;-85
2022/06/26 01:46:06;;;;;;;29.23;25.23;;;17.50;99.90;;;;;;4667984;30;20047;-86
2022/06/26 01:48:33;;;;;;;52.63;28.45;;;17.50;99.90;;;;;;4647308;30;20130;-86
2022/06/26 01:51:00;;;;;;;36.47;26.77;;;17.50;99.90;;;;;;4648796;30;20078;-87
2022/06/26 01:53:27;;;;;;;34.00;24.92;;;17.50;99.90;;;;;;4657297;30;20062;-86
2022/06/26 01:55:52;;;;;;;109.30;34.55;;;17.50;99.90;;;;;;4668263;30;20062;-86
2022/06/26 01:58:19;;;;;;;42.90;27.35;;;17.50;99.90;;;;;;4633207;30;20055;-86
2022/06/26 02:00:47;;;;;;;28.88;25.42;;;17.40;99.90;;;;;;4661768;30;20046;-86
2022/06/26 02:03:14;;;;;;;26.33;23.50;;;17.40;99.90;;;;;;4666052;30;20052;-86
2022/06/26 02:05:41;;;;;;;26.83;21.98;;;17.40;99.90;;;;;;4649989;30;20525;-86
2022/06/26 02:08:06;;;;;;;24.73;22.23;;;17.40;99.90;;;;;;4670678;30;20392;-86
2022/06/26 02:16:09;;;;;;;41.53;22.52;;;17.30;99.90;;;;;;4653599;30;20504;-86
2022/06/26 02:18:35;;;;;;;;;;;17.30;99.90;;;;;;4646996;30;20051;-86
2022/06/26 02:21:01;;;;;;;24.10;19.05;;;17.30;99.90;;;;;;4668367;30;19979;-86
2022/06/26 02:23:27;;;;;;;24.33;20.00;;;17.20;99.90;;;;;;4665954;30;20661;-86
2022/06/26 02:25:53;;;;;;;25.55;17.92;;;17.20;99.90;;;;;;4639941;30;20047;-86
2022/06/26 02:28:19;;;;;;;26.52;18.30;;;17.20;99.90;;;;;;4661247;30;20137;-86
2022/06/26 02:30:46;;;;;;;28.10;16.85;;;17.20;99.90;;;;;;4653599;30;20050;-86
2022/06/26 02:33:12;;;;;;;25.25;15.95;;;17.00;99.90;;;;;;4673241;30;20042;-86
2022/06/26 02:35:37;;;;;;;13.95;12.15;;;17.10;99.90;;;;;;4672152;30;20420;-86
2022/06/26 02:38:03;;;;;;;26.10;14.13;;;17.00;99.90;;;;;;4632664;30;20106;-86
2022/06/26 02:40:30;;;;;;;17.02;12.70;;;17.00;99.90;;;;;;4666776;30;20486;-86
2022/06/26 02:42:56;;;;;;;17.10;10.80;;;17.00;99.90;;;;;;4660974;30;20039;-86
2022/06/26 02:45:22;;;;;;;17.45;11.70;;;16.90;99.90;;;;;;4653858;30;20098;-86
2022/06/26 02:47:48;;;;;;;9.90;8.93;;;16.80;99.90;;;;;;4663142;30;20422;-86
2022/06/26 02:50:15;;;;;;;10.38;9.30;;;16.80;99.90;;;;;;4666715;30;20113;-86
2022/06/26 02:52:41;;;;;;;12.88;9.52;;;16.70;99.90;;;;;;4641124;30;20042;-86
2022/06/26 02:55:07;;;;;;;15.60;10.20;;;16.70;99.90;;;;;;4652591;30;20055;-86
2022/06/26 02:57:33;;;;;;;11.52;8.77;;;16.60;99.90;;;;;;4660961;30;20141;-87
2022/06/26 02:59:58;;;;;;;10.52;9.43;;;16.50;99.90;;;;;;4652866;30;20234;-87
2022/06/26 03:02:24;;;;;;;14.45;9.20;;;16.50;99.90;;;;;;4639004;30;20089;-86
2022/06/26 03:04:51;;;;;;;8.85;7.80;;;16.50;99.90;;;;;;4663115;30;20054;-85
2022/06/26 03:07:17;;;;;;;10.38;7.18;;;16.40;99.90;;;;;;4656505;30;20054;-86
2022/06/26 03:09:43;;;;;;;10.70;7.85;;;16.40;99.90;;;;;;4670960;30;20058;-86
2022/06/26 03:12:08;;;;;;;8.90;7.15;;;16.30;99.90;;;;;;4655967;30;20050;-86
2022/06/26 03:14:34;;;;;;;11.27;7.03;;;16.30;99.90;;;;;;4662583;30;20542;-86
2022/06/26 03:17:00;;;;;;;10.05;7.53;;;16.20;99.90;;;;;;4650138;30;20519;-86
2022/06/26 03:19:25;;;;;;;7.00;6.30;;;16.20;99.90;;;;;;4619702;30;20042;-86
2022/06/26 03:21:51;;;;;;;9.02;6.60;;;16.20;99.90;;;;;;4655335;30;20396;-88
2022/06/26 03:24:17;;;;;;;6.97;6.25;;;16.10;99.90;;;;;;4670882;30;20518;-86
2022/06/26 03:26:43;;;;;;;8.05;7.25;;;16.10;99.90;;;;;;4660376;30;20122;-86
2022/06/26 03:29:10;;;;;;;11.25;7.47;;;16.10;99.90;;;;;;4645464;30;20623;-86
2022/06/26 03:31:36;;;;;;;8.23;6.18;;;16.00;99.90;;;;;;4653415;30;20590;-86
2022/06/26 03:34:02;;;;;;;7.25;6.53;;;16.00;99.90;;;;;;4646464;30;20047;-87
2022/06/26 03:36:28;;;;;;;7.78;6.45;;;16.00;99.90;;;;;;4660660;30;20098;-87
2022/06/26 03:38:55;;;;;;;9.68;7.32;;;15.90;99.90;;;;;;4659243;30;20085;-87
2022/06/26 03:41:21;;;;;;;7.10;6.40;;;15.90;99.90;;;;;;4646548;30;20077;-86
2022/06/26 03:43:47;;;;;;;9.50;6.93;;;15.80;99.90;;;;;;4660285;30;20042;-87
2022/06/26 03:46:13;;;;;;;8.25;7.45;;;15.80;99.90;;;;;;4660459;30;20058;-87
2022/06/26 03:48:39;;;;;;;7.20;6.50;;;15.80;99.90;;;;;;4646080;30;20073;-87
2022/06/26 03:51:05;;;;;;;9.48;7.45;;;15.70;99.90;;;;;;4652765;30;20137;-86
2022/06/26 03:53:32;;;;;;;9.13;7.25;;;15.70;99.90;;;;;;4647567;30;20051;-86
2022/06/26 03:55:58;;;;;;;8.82;7.97;;;15.70;99.90;;;;;;4659060;30;20039;-87
2022/06/26 03:58:24;;;;;;;8.65;7.00;;;15.60;99.90;;;;;;4652187;30;20077;-87
2022/06/26 04:00:50;;;;;;;8.13;7.32;;;15.60;99.90;;;;;;4670465;30;20050;-86
2022/06/26 04:03:17;;;;;;;8.15;7.45;;;15.70;99.90;;;;;;4647799;30;20082;-86
2022/06/26 04:05:42;;;;;;;7.50;6.88;;;15.60;99.90;;;;;;4646774;30;20493;-86
2022/06/26 04:08:09;;;;;;;9.10;8.30;;;15.60;99.90;;;;;;4656994;30;20051;-90
2022/06/26 04:10:35;;;;;;;10.25;9.15;;;15.60;99.90;;;;;;4637758;30;20050;-87
2022/06/26 04:13:03;;;;;;;9.40;8.57;;;15.70;99.90;;;;;;4665893;30;20043;-86
2022/06/26 04:15:31;;;;;;;11.23;10.20;;;15.60;99.90;;;;;;4639096;30;20051;-86
2022/06/26 04:17:57;;;;;;;11.85;10.73;;;15.80;99.90;;;;;;4629054;31;20137;-87
2022/06/26 04:20:23;;;;;;;26.15;13.40;;;15.80;99.90;;;;;;4638199;30;20476;-88
2022/06/26 04:23:05;;;;;;;25.95;14.95;;;15.90;99.90;;;;;;4655153;30;20143;-87
2022/06/26 04:25:32;;;;;;;33.45;18.58;;;16.00;99.90;;;;;;4638497;30;20058;-86
2022/06/26 04:27:58;;;;;;;47.90;21.50;;;16.10;99.90;;;;;;4660163;30;20051;-87
2022/06/26 04:30:24;;;;;;;39.97;20.20;;;16.30;99.90;;;;;;4666821;30;20046;-86
2022/06/26 04:32:49;;;;;;;21.83;17.58;;;16.30;99.90;;;;;;4673333;30;20129;-86
2022/06/26 04:35:16;;;;;;;24.85;17.38;;;16.40;99.90;;;;;;4676168;30;20121;-88
2022/06/26 04:37:42;;;;;;;16.25;14.40;;;16.60;99.90;;;;;;4637775;30;20054;-87
2022/06/26 04:40:11;;;;;;;29.80;16.48;;;16.60;99.90;;;;;;4662623;30;20067;-87
2022/06/26 04:42:37;;;;;;;23.83;15.88;;;16.60;99.90;;;;;;4666585;30;20610;-86
2022/06/26 04:45:04;;;;;;;22.33;15.90;;;16.70;99.90;;;;;;4653727;30;20400;-88
2022/06/26 04:47:29;;;;;;;22.90;15.07;;;16.70;99.90;;;;;;4655393;30;20504;-87
2022/06/26 04:49:55;;;;;;;24.65;17.40;;;16.70;99.90;;;;;;4663326;30;20088;-86
2022/06/26 04:52:21;;;;;;;32.00;17.67;;;16.80;99.90;;;;;;4654827;30;20245;-86
2022/06/26 04:54:46;;;;;;;20.77;17.00;;;16.80;99.90;;;;;;4680211;30;20060;-86
2022/06/26 04:57:12;;;;;;;18.52;16.13;;;16.90;99.90;;;;;;4679974;30;20192;-87
2022/06/26 04:59:38;;;;;;;22.80;16.75;;;16.90;99.90;;;;;;4677564;30;20105;-87
2022/06/26 05:02:06;;;;;;;16.55;14.85;;;17.10;99.90;;;;;;4651745;30;20047;-87
2022/06/26 05:04:31;;;;;;;31.90;16.70;;;17.20;99.90;;;;;;4636524;30;20055;-86
2022/06/26 05:06:57;;;;;;;17.70;14.85;;;17.20;99.90;;;;;;4645192;30;20390;-87
2022/06/26 05:09:24;;;;;;;20.13;14.82;;;17.20;99.90;;;;;;4645390;30;20047;-87
2022/06/26 05:11:50;;;;;;;20.88;16.27;;;17.10;99.90;;;;;;4652232;30;21514;-88
2022/06/26 05:14:17;;;;;;;17.10;15.40;;;17.00;99.90;;;;;;4649110;30;20074;-88
2022/06/26 05:16:42;;;;;;;19.35;15.60;;;17.10;99.90;;;;;;4656358;30;20089;-86
2022/06/26 05:19:08;;;;;;;18.98;17.10;;;17.10;99.90;;;;;;4658269;30;20078;-88
2022/06/26 05:21:34;;;;;;;19.20;17.23;;;17.10;99.90;;;;;;4668867;30;20109;-86
2022/06/26 05:23:59;;;;;;;19.23;17.30;;;17.10;99.90;;;;;;4672923;30;20043;-86
2022/06/26 05:26:25;;;;;;;18.35;16.63;;;17.10;99.90;;;;;;4659028;30;20079;-87
2022/06/26 05:36:37;;;;;;;24.23;21.73;;;17.10;99.90;;;;;;4642659;30;20055;-80
2022/06/26 05:40:07;;;;;;;24.48;21.92;;;17.20;99.90;;;;;;4635690;30;20507;-80
2022/06/26 05:43:42;;;;;;;;;;;;;;;;;;;;;
2022/06/26 05:47:18;;;;;;;23.40;20.88;;;17.30;99.90;;;;;;4655112;30;20128;-79
2022/06/26 05:58:08;;;;;;;29.67;25.65;;;17.30;99.90;;;;;;4652477;30;20110;-80
2022/06/26 06:04:54;;;;;;;34.55;25.33;;;17.30;99.90;;;;;;4602087;31;20056;-80
2022/06/26 06:12:22;;;;;;;28.50;23.35;;;17.20;99.90;;;;;;4600706;31;20067;-79
2022/06/26 06:15:54;;;;;;;;;;;;;;;;;;;;;
2022/06/26 06:19:26;;;;;;;26.92;23.52;;;17.20;99.90;;;;;;4554094;31;20057;-82
2022/06/26 06:31:06;;;;;;;;;;;;;;;;;;;;;
2022/06/26 07:24:07;;;;;;;24.70;22.08;;;18.00;99.90;;;;;;4766692;25;20541;-81
2022/06/26 07:27:03;;;;;;;24.08;21.67;;;18.10;99.90;;;;;;4675115;30;20054;-80
2022/06/26 07:29:46;;;;;;;;;;;;;;;;;;;;;
2022/06/26 07:32:48;;;;;;;22.27;19.88;;;18.10;99.90;;;;;;4682045;30;20054;-80
2022/06/26 07:35:15;;;;;;;26.27;23.67;;;18.30;99.90;;;;;;4684084;24;20065;-86
2022/06/26 07:37:40;;;;;;;24.55;22.23;;;18.50;99.90;;;;;;4649265;30;20051;-86
2022/06/26 07:40:07;;;;;;;22.27;20.10;;;18.60;99.90;;;;;;4649056;30;20573;-86
2022/06/26 07:42:32;;;;;;;23.10;20.95;;;18.70;99.90;;;;;;4677522;30;20097;-86
2022/06/26 07:44:58;;;;;;;24.70;22.20;;;18.80;99.90;;;;;;4662653;30;20065;-86
2022/06/26 07:47:24;;;;;;;22.65;20.58;;;19.20;99.90;;;;;;4646620;30;20158;-86
2022/06/26 07:49:49;;;;;;;20.13;18.13;;;19.80;99.90;;;;;;4648348;30;20070;-86
2022/06/26 07:52:15;;;;;;;18.75;16.85;;;20.00;99.90;;;;;;4648809;30;20050;-86
2022/06/26 07:54:41;;;;;;;18.58;16.90;;;20.00;99.90;;;;;;4661402;30;20059;-85
2022/06/26 07:57:07;;;;;;;19.33;17.52;;;20.00;99.90;;;;;;4645110;30;20165;-85
2022/06/26 07:59:33;;;;;;;18.95;17.33;;;20.00;99.90;;;;;;4645342;30;20184;-84
2022/06/26 08:01:59;;;;;;;18.65;16.95;;;20.00;99.90;;;;;;4641457;30;20391;-86
2022/06/26 08:04:25;;;;;;;15.45;14.02;;;20.40;99.90;;;;;;4647729;30;20137;-85
2022/06/26 08:06:50;;;;;;;15.07;13.73;;;20.80;99.90;;;;;;4651777;30;20505;-85
2022/06/26 08:09:16;;;;;;;15.13;13.55;;;20.90;99.90;;;;;;4652071;30;20400;-85
2022/06/26 08:11:42;;;;;;;10.30;8.60;;;20.90;99.90;;;;;;4665763;30;20051;-85
2022/06/26 08:14:07;;;;;;;11.65;9.10;;;20.80;99.90;;;;;;4675367;30;20055;-85
2022/06/26 08:16:33;;;;;;;10.80;8.95;;;21.10;99.90;;;;;;4651528;30;20061;-85
2022/06/26 08:18:58;;;;;;;10.05;8.50;;;21.90;99.90;;;;;;4651845;30;20049;-86
2022/06/26 08:24:08;;;;;;;8.45;7.10;;;23.20;99.90;;;;;;4664230;30;20095;-85
2022/06/26 08:26:34;;;;;;;8.85;7.15;;;23.80;99.90;;;;;;4652248;30;20070;-85
2022/06/26 08:28:59;;;;;;;6.65;6.00;;;23.80;99.90;;;;;;4650595;30;20105;-85
2022/06/26 08:31:25;;;;;;;8.43;5.93;;;23.60;99.90;;;;;;4651034;30;20054;-85
2022/06/26 08:33:50;;;;;;;5.82;5.00;;;23.60;99.90;;;;;;4649138;30;20171;-85
2022/06/26 08:36:16;;;;;;;7.05;4.75;;;23.50;99.90;;;;;;4648071;30;20042;-85
2022/06/26 08:38:42;;;;;;;7.75;5.15;;;23.80;99.90;;;;;;4645317;30;20134;-85
2022/06/26 08:41:09;;;;;;;5.43;4.75;;;24.30;99.90;;;;;;4650635;30;20124;-85
2022/06/26 08:43:38;;;;;;;6.07;4.47;;;24.80;99.90;;;;;;4651654;30;20047;-86
2022/06/26 08:46:04;;;;;;;4.50;4.00;;;25.40;99.90;;;;;;4650972;30;20510;-85
2022/06/26 08:48:40;;;;;;;6.25;4.85;;;25.90;99.90;;;;;;4663660;30;20074;-85
2022/06/26 08:51:07;;;;;;;5.93;4.50;;;26.30;99.90;;;;;;4645064;30;20078;-85
2022/06/26 08:53:34;;;;;;;5.22;4.35;;;26.20;99.90;;;;;;4662977;30;20468;-85
2022/06/26 08:56:00;;;;;;;5.63;4.80;;;25.80;99.90;;;;;;4650879;30;20046;-86
2022/06/26 08:58:26;;;;;;;5.70;4.40;;;25.50;99.90;;;;;;4664842;30;20050;-85
2022/06/26 09:00:51;;;;;;;6.28;4.03;;;25.20;99.90;;;;;;4651201;30;20109;-86
2022/06/26 09:03:17;;;;;;;6.10;4.18;;;24.90;99.90;;;;;;4665517;30;20517;-85
2022/06/26 09:05:43;;;;;;;5.57;3.83;;;24.90;99.90;;;;;;4651168;30;20129;-86
2022/06/26 09:08:18;;;;;;;4.88;3.80;;;25.10;99.90;;;;;;4650038;30;20526;-86
2022/06/26 09:10:46;;;;;;;4.55;3.85;;;25.20;99.90;;;;;;4651263;30;20053;-86
2022/06/26 09:13:11;;;;;;;5.75;3.90;;;25.40;99.90;;;;;;4663595;30;20459;-86
2022/06/26 09:15:39;;;;;;;3.50;3.20;;;25.40;99.90;;;;;;4648968;30;20153;-86
2022/06/26 09:18:07;;;;;;;5.28;3.42;;;25.20;99.90;;;;;;4650387;30;20145;-86
2022/06/26 09:20:48;;;;;;;5.20;3.85;;;25.00;99.90;;;;;;4651148;30;20423;-86
2022/06/26 09:23:15;;;;;;;5.30;3.67;;;24.80;99.90;;;;;;4650625;30;20109;-84
2022/06/26 09:25:43;;;;;;;5.43;3.33;;;24.50;99.90;;;;;;4664293;30;20051;-84
2022/06/26 09:28:18;;;;;;;5.03;3.40;;;24.20;99.90;;;;;;4664382;30;20414;-85
2022/06/26 09:30:50;;;;;;;5.95;3.35;;;23.90;99.90;;;;;;4650614;30;20050;-85
2022/06/26 09:33:18;;;;;;;5.10;3.78;;;23.80;99.90;;;;;;4647748;30;20050;-85
2022/06/26 09:35:44;;;;;;;4.60;3.28;;;23.80;99.90;;;;;;4660753;30;20054;-84
2022/06/26 09:38:10;;;;;;;4.55;3.10;;;23.90;99.90;;;;;;4649564;30;20517;-84
2022/06/26 09:40:35;;;;;;;3.92;3.53;;;24.10;99.90;;;;;;4664718;30;20053;-84
2022/06/26 09:43:01;;;;;;;5.28;3.67;;;24.10;99.90;;;;;;4659738;30;20409;-85
2022/06/26 09:45:39;;;;;;;8.10;3.80;;;24.00;99.90;;;;;;4645327;30;20043;-84
2022/06/26 09:48:08;;;;;;;4.40;3.25;;;23.80;99.90;;;;;;4649917;30;20129;-85
2022/06/26 09:50:34;;;;;;;6.47;3.67;;;23.70;99.90;;;;;;4649828;30;20049;-84
2022/06/26 09:53:00;;;;;;;5.93;3.47;;;23.70;99.90;;;;;;4650670;30;20411;-85
2022/06/26 09:55:27;;;;;;;5.15;2.90;;;23.70;99.90;;;;;;4664623;30;20046;-84
2022/06/26 09:57:52;;;;;;;6.30;3.22;;;23.80;99.90;;;;;;4642046;30;20133;-85
2022/06/26 10:00:18;;;;;;;5.07;3.50;;;23.80;99.90;;;;;;4648633;30;20129;-85
2022/06/26 10:08:15;;;;;;;6.10;3.83;;;23.60;99.90;;;;;;4661399;30;20058;-85
2022/06/26 10:10:41;;;;;;;6.88;3.53;;;23.50;99.90;;;;;;4650141;30;20082;-85
2022/06/26 10:13:08;;;;;;;4.07;3.47;;;23.30;99.90;;;;;;4642243;30;20050;-84
2022/06/26 10:15:50;;;;;;;5.75;3.65;;;23.20;99.90;;;;;;4663863;30;20427;-85
2022/06/26 10:18:37;;;;;;;6.20;3.58;;;23.00;99.90;;;;;;4661382;30;20047;-84
2022/06/26 10:21:10;;;;;;;6.18;3.60;;;22.90;99.90;;;;;;4663686;30;20053;-85
2022/06/26 10:23:38;;;;;;;6.23;4.67;;;22.70;99.90;;;;;;4662502;30;20510;-84
2022/06/26 10:26:20;;;;;;;5.32;4.82;;;22.70;99.90;;;;;;4657515;30;20290;-85
2022/06/26 10:29:02;;;;;;;6.03;4.30;;;22.60;99.90;;;;;;4648658;30;20051;-85
2022/06/26 10:31:47;;;;;;;6.53;4.40;;;22.70;99.90;;;;;;4646768;30;20061;-85
2022/06/26 10:34:19;;;;;;;5.20;4.68;;;22.80;99.90;;;;;;4675517;30;20145;-83
2022/06/26 10:37:03;;;;;;;9.07;4.45;;;23.00;99.90;;;;;;4649468;30;20059;-84
2022/06/26 10:39:42;;;;;;;8.07;4.50;;;23.20;99.90;;;;;;4649405;30;20255;-85
2022/06/26 10:45:27;;;;;;;5.35;4.20;;;23.40;99.90;;;;;;4656153;30;20082;-84
2022/06/26 10:47:55;;;;;;;5.22;4.40;;;23.50;99.90;;;;;;4646946;30;20124;-85
2022/06/26 10:50:36;;;;;;;5.78;4.05;;;23.70;99.90;;;;;;4656261;30;20058;-85
2022/06/26 10:53:19;;;;;;;4.50;3.80;;;23.80;99.90;;;;;;4656804;30;20039;-85
2022/06/26 10:55:51;;;;;;;6.50;3.83;;;23.80;99.90;;;;;;4648257;30;20038;-84
2022/06/26 10:58:30;;;;;;;5.82;3.97;;;23.80;99.90;;;;;;4646054;30;20046;-83
2022/06/26 11:01:01;;;;;;;7.32;3.90;;;23.80;99.90;;;;;;4657033;30;20050;-83
2022/06/26 11:03:29;;;;;;;5.15;4.35;;;23.70;99.90;;;;;;4649041;30;20048;-83
2022/06/26 11:05:56;;;;;;;4.68;3.97;;;23.60;99.90;;;;;;4647651;30;20073;-83
2022/06/26 11:08:30;;;;;;;6.10;3.55;;;23.50;99.90;;;;;;4660336;30;20362;-84
2022/06/26 11:11:01;;;;;;;6.10;3.45;;;23.30;99.90;;;;;;4646682;30;20045;-83
2022/06/26 11:13:27;;;;;;;5.50;3.28;;;23.20;99.90;;;;;;4661009;30;20104;-83
2022/06/26 11:15:52;;;;;;;4.72;2.88;;;23.10;99.90;;;;;;4653717;30;20444;-84
2022/06/26 11:18:18;;;;;;;4.00;2.95;;;23.10;99.90;;;;;;4661225;30;20050;-84
2022/06/26 11:20:53;;;;;;;4.60;2.90;;;23.20;99.90;;;;;;4662677;30;20046;-83
2022/06/26 11:23:25;;;;;;;5.28;3.00;;;23.30;99.90;;;;;;4657208;30;20196;-83
2022/06/26 11:25:55;;;;;;;6.15;3.03;;;23.30;99.90;;;;;;4662790;30;20069;-83
2022/06/26 11:28:28;;;;;;;3.55;2.42;;;23.30;99.90;;;;;;4660933;30;20510;-83
2022/06/26 11:30:54;;;;;;;5.43;2.70;;;23.30;99.90;;;;;;4641066;30;20061;-83
2022/06/26 11:33:28;;;;;;;5.05;3.10;;;23.20;99.90;;;;;;4658625;30;20050;-83
2022/06/26 11:35:55;;;;;;;5.03;3.03;;;23.10;99.90;;;;;;4674088;30;20043;-82
2022/06/26 11:38:22;;;;;;;4.22;3.45;;;22.90;99.90;;;;;;4648256;30;20105;-82
2022/06/26 11:40:48;;;;;;;5.30;4.00;;;22.80;99.90;;;;;;4649305;30;20046;-82
2022/06/26 11:43:15;;;;;;;6.75;3.85;;;22.70;99.90;;;;;;4648587;30;20042;-83
2022/06/26 11:45:42;;;;;;;5.47;4.28;;;22.60;99.90;;;;;;4664859;30;20054;-82
2022/06/26 11:48:13;;;;;;;6.13;3.70;;;22.70;99.90;;;;;;4645088;30;20042;-81
2022/06/26 11:50:39;;;;;;;5.07;3.50;;;22.70;99.90;;;;;;4666427;30;20046;-83
2022/06/26 11:53:06;;;;;;;5.93;3.70;;;22.70;99.90;;;;;;4650315;30;21357;-84
2022/06/26 11:55:33;;;;;;;5.70;3.80;;;22.70;99.90;;;;;;4652055;30;20509;-83
2022/06/26 11:58:02;;;;;;;5.47;4.40;;;22.70;99.90;;;;;;4651132;30;20051;-83
2022/06/26 12:00:28;;;;;;;5.85;4.20;;;22.70;99.90;;;;;;4652005;30;20046;-82
2022/06/26 12:02:53;;;;;;;5.72;4.47;;;22.70;99.90;;;;;;4650732;30;20046;-82
2022/06/26 12:05:27;;;;;;;6.22;4.55;;;22.70;99.90;;;;;;4663391;30;20046;-83
2022/06/26 12:07:53;;;;;;;7.25;5.38;;;22.70;99.90;;;;;;4664436;30;20620;-83
2022/06/26 12:10:29;;;;;;;4.72;4.10;;;22.70;99.90;;;;;;4665135;30;20054;-83
2022/06/26 12:12:56;;;;;;;8.27;4.50;;;22.80;99.90;;;;;;4665544;30;20034;-83
2022/06/26 12:15:24;;;;;;;5.53;3.50;;;22.80;99.90;;;;;;4661644;30;20177;-83
2022/06/26 12:17:55;;;;;;;5.43;3.60;;;22.70;99.90;;;;;;4664640;30;20469;-83
2022/06/26 12:20:21;;;;;;;4.82;3.47;;;22.50;99.90;;;;;;4650705;30;20047;-83
2022/06/26 12:22:54;;;;;;;4.45;3.38;;;22.40;99.90;;;;;;4651674;30;20185;-83
2022/06/26 12:25:31;;;;;;;4.90;3.30;;;22.30;99.90;;;;;;4650500;30;20130;-84
2022/06/26 12:27:57;;;;;;;4.97;3.22;;;22.20;99.90;;;;;;4664564;30;20039;-83
2022/06/26 12:30:44;;;;;;;4.70;3.20;;;22.10;99.90;;;;;;4647042;30;20420;-84
2022/06/26 12:33:11;;;;;;;5.95;3.03;;;22.00;99.90;;;;;;4663863;30;20058;-84
2022/06/26 12:35:36;;;;;;;4.97;3.30;;;22.10;99.90;;;;;;4649686;30;20055;-83
2022/06/26 12:38:03;;;;;;;4.30;3.35;;;22.10;99.90;;;;;;4649830;30;20038;-84
2022/06/26 12:40:29;;;;;;;3.88;2.97;;;22.20;99.90;;;;;;4663322;30;20507;-83
2022/06/26 12:42:55;;;;;;;5.22;3.33;;;22.20;99.90;;;;;;4676142;30;20166;-83
2022/06/26 12:45:21;;;;;;;4.95;2.97;;;22.20;99.90;;;;;;4647330;30;20058;-84
2022/06/26 12:47:48;;;;;;;4.20;3.15;;;22.00;99.90;;;;;;4651072;30;20043;-83
2022/06/26 12:50:13;;;;;;;5.78;3.00;;;22.00;99.90;;;;;;4665553;30;20094;-83
2022/06/26 12:52:40;;;;;;;4.40;3.15;;;21.90;99.90;;;;;;4649387;30;20074;-83
2022/06/26 12:55:07;;;;;;;4.15;2.90;;;21.90;99.90;;;;;;4648666;30;20050;-83
2022/06/26 12:57:33;;;;;;;6.40;3.10;;;21.80;99.90;;;;;;4651214;30;20053;-84
2022/06/26 12:59:58;;;;;;;5.57;2.88;;;21.70;99.90;;;;;;4650345;30;20042;-84
2022/06/26 13:02:24;;;;;;;4.10;2.85;;;21.70;99.90;;;;;;4650604;30;20120;-84
2022/06/26 13:04:51;;;;;;;4.35;2.90;;;21.60;99.90;;;;;;4649513;30;20047;-84
2022/06/26 13:07:17;;;;;;;6.00;3.10;;;21.50;99.90;;;;;;4648836;30;20042;-84
2022/06/26 13:09:43;;;;;;;6.45;2.80;;;21.40;99.90;;;;;;4649374;30;20065;-85
2022/06/26 13:12:09;;;;;;;5.18;2.67;;;21.30;99.90;;;;;;4646721;30;21392;-84
2022/06/26 13:14:34;;;;;;;4.15;2.70;;;21.20;99.90;;;;;;4661778;30;20054;-84
2022/06/26 13:17:00;;;;;;;4.03;2.58;;;21.10;99.90;;;;;;4665206;30;20247;-84
2022/06/26 13:19:26;;;;;;;5.47;3.10;;;21.10;99.90;;;;;;4650350;30;20145;-83
2022/06/26 13:21:52;;;;;;;6.07;2.95;;;21.00;99.90;;;;;;4650222;30;20043;-83
2022/06/26 13:24:18;;;;;;;5.13;3.42;;;21.00;99.90;;;;;;4650191;30;20101;-83
2022/06/26 13:26:45;;;;;;;4.55;3.05;;;20.90;99.90;;;;;;4664996;30;20046;-83
2022/06/26 13:29:11;;;;;;;5.55;3.83;;;20.80;99.90;;;;;;4650078;30;20113;-83
2022/06/26 13:31:37;;;;;;;4.82;2.90;;;20.70;99.90;;;;;;4649980;30;20454;-83
2022/06/26 13:34:02;;;;;;;4.13;3.33;;;20.50;99.90;;;;;;4650077;30;20040;-83
2022/06/26 13:36:28;;;;;;;4.15;3.40;;;20.30;99.90;;;;;;4663059;30;20081;-83
2022/06/26 13:38:54;;;;;;;4.35;3.28;;;20.20;99.90;;;;;;4664719;30;20054;-83
2022/06/26 13:41:19;;;;;;;4.28;3.55;;;20.00;99.90;;;;;;4647782;30;20122;-84
2022/06/26 13:43:45;;;;;;;5.00;3.75;;;19.90;99.90;;;;;;4650545;30;20053;-83
2022/06/26 13:46:10;;;;;;;5.30;3.50;;;19.80;99.90;;;;;;4650821;30;20047;-83
2022/06/26 13:48:36;;;;;;;7.03;3.90;;;19.80;99.90;;;;;;4648713;30;20184;-84
2022/06/26 13:51:02;;;;;;;4.95;3.35;;;19.70;99.90;;;;;;4648608;30;20046;-83
2022/06/26 13:53:27;;;;;;;6.15;4.15;;;19.60;99.90;;;;;;4674716;30;20150;-83
2022/06/26 13:55:53;;;;;;;5.78;3.80;;;19.60;99.90;;;;;;4645842;30;20074;-83
2022/06/26 13:58:19;;;;;;;6.75;4.32;;;19.50;99.90;;;;;;4649631;30;20046;-84
2022/06/26 14:00:45;;;;;;;4.45;3.20;;;19.60;99.90;;;;;;4647735;30;20534;-83
2022/06/26 14:03:11;;;;;;;5.50;3.90;;;19.50;99.90;;;;;;4662892;30;20043;-83
2022/06/26 14:05:36;;;;;;;4.30;2.65;;;19.50;99.90;;;;;;4650129;30;20101;-83
2022/06/26 14:08:02;;;;;;;5.20;3.00;;;19.50;99.90;;;;;;4650293;30;20049;-84
2022/06/26 14:10:28;;;;;;;3.78;2.70;;;19.50;99.90;;;;;;4664168;30;20047;-83
2022/06/26 14:12:53;;;;;;;4.53;2.85;;;19.50;99.90;;;;;;4649376;30;20145;-84
2022/06/26 14:15:19;;;;;;;3.15;2.25;;;19.70;99.90;;;;;;4649389;30;20046;-84
2022/06/26 14:17:45;;;;;;;3.55;2.30;;;19.70;99.90;;;;;;4663884;30;20050;-84
2022/06/26 14:20:11;;;;;;;3.80;2.53;;;19.80;99.90;;;;;;4650117;30;20051;-83
2022/06/26 14:28:06;;;;;;;4.63;3.22;;;19.80;99.90;;;;;;4664143;30;20120;-84
2022/06/26 14:30:31;;;;;;;5.75;3.67;;;19.80;99.90;;;;;;4649206;30;20503;-83
2022/06/26 14:32:57;;;;;;;5.20;3.13;;;19.90;99.90;;;;;;4650010;30;20050;-84
2022/06/26 14:35:23;;;;;;;5.22;3.33;;;19.90;99.90;;;;;;4649811;30;20050;-83
2022/06/26 14:37:48;;;;;;;4.75;3.30;;;20.00;99.90;;;;;;4663781;30;20082;-84